createdAt,value
2022-07-29T00:01:00.926Z,45.1
2022-07-29T00:02:03.003Z,45.3
2022-07-29T00:03:05.001Z,45.3
2022-07-29T00:04:07.007Z,45.4
2022-07-29T00:05:08.951Z,45.4
2022-07-29T00:06:10.947Z,45.3
2022-07-29T00:07:13.174Z,45.3
2022-07-29T00:08:15.066Z,45.3
2022-07-29T00:09:16.948Z,45.3
2022-07-29T00:10:20.035Z,45.3
2022-07-29T00:11:21.944Z,45.3
2022-07-29T00:12:25.853Z,45.4
2022-07-29T00:13:31.931Z,45.6
2022-07-29T00:14:28.189Z,45.6
2022-07-29T00:15:29.943Z,45.6
2022-07-29T00:16:32.048Z,45.6
2022-07-29T00:17:33.949Z,45.7
2022-07-29T00:18:35.969Z,45.7
2022-07-29T00:19:37.973Z,45.7
2022-07-29T00:20:39.992Z,45.8
2022-07-29T00:21:41.980Z,45.9
2022-07-29T00:22:43.967Z,46
2022-07-29T00:23:45.961Z,46
2022-07-29T00:24:48.032Z,45.9
2022-07-29T00:25:49.977Z,45.8
2022-07-29T00:26:51.976Z,45.9
2022-07-29T00:27:53.968Z,45.9
2022-07-29T00:29:06.478Z,45.9
2022-07-29T00:29:58.005Z,45.9
2022-07-29T00:30:59.981Z,46
2022-07-29T00:32:02.073Z,46.1
2022-07-29T00:33:06.930Z,46.2
2022-07-29T00:34:05.995Z,46.2
2022-07-29T00:35:07.959Z,46.3
2022-07-29T00:36:10.049Z,46.3
2022-07-29T00:37:11.967Z,46.2
2022-07-29T00:38:13.980Z,46.3
2022-07-29T00:39:15.984Z,46.3
2022-07-29T00:40:18.009Z,46.3
2022-07-29T00:41:20.041Z,46.4
2022-07-29T00:42:22.006Z,46.4
2022-07-29T00:43:23.993Z,46.5
2022-07-29T00:44:26.006Z,46.5
2022-07-29T00:45:28.013Z,46.7
2022-07-29T00:46:30.078Z,46.7
2022-07-29T00:47:32.000Z,46.8
2022-07-29T00:48:34.051Z,46.8
2022-07-29T00:49:36.005Z,46.9
2022-07-29T00:50:38.006Z,46.9
2022-07-29T00:51:39.988Z,46.9
2022-07-29T00:52:42.003Z,46.9
2022-07-29T00:53:44.068Z,47
2022-07-29T00:54:46.066Z,47.2
2022-07-29T00:55:48.035Z,47.5
2022-07-29T00:56:50.255Z,47.6
2022-07-29T00:57:52.040Z,47.6
2022-07-29T00:58:54.129Z,47.7
2022-07-29T00:59:56.020Z,47.9
2022-07-29T01:00:58.139Z,47.9
2022-07-29T01:02:00.151Z,48.1
2022-07-29T01:03:02.070Z,48.2
2022-07-29T01:04:04.065Z,48.3
2022-07-29T01:05:06.027Z,48.4
2022-07-29T01:06:08.034Z,48.5
2022-07-29T01:07:10.033Z,48.6
2022-07-29T01:08:12.068Z,48.7
2022-07-29T01:09:14.049Z,48.7
2022-07-29T01:10:16.040Z,48.7
2022-07-29T01:11:18.244Z,48.6
2022-07-29T01:12:20.688Z,48.6
2022-07-29T01:13:22.048Z,48.8
2022-07-29T01:14:24.048Z,48.8
2022-07-29T01:15:26.178Z,48.8
2022-07-29T01:16:28.687Z,48.8
2022-07-29T01:17:30.055Z,48.7
2022-07-29T01:18:32.104Z,48.7
2022-07-29T01:19:34.047Z,48.7
2022-07-29T01:20:36.084Z,48.7
2022-07-29T01:21:38.075Z,48.7
2022-07-29T01:22:40.063Z,48.7
2022-07-29T01:23:42.087Z,48.7
2022-07-29T01:24:44.072Z,48.7
2022-07-29T01:25:46.082Z,48.7
2022-07-29T01:26:48.123Z,48.7
2022-07-29T01:27:50.071Z,48.9
2022-07-29T01:28:52.072Z,49
2022-07-29T01:29:54.071Z,49
2022-07-29T01:30:56.346Z,49.1
2022-07-29T01:31:58.930Z,49.4
2022-07-29T01:33:00.112Z,49.5
2022-07-29T01:34:02.142Z,49.7
2022-07-29T01:35:04.090Z,49.7
2022-07-29T01:36:06.123Z,49.8
2022-07-29T01:37:08.070Z,49.8
2022-07-29T01:38:10.100Z,49.7
2022-07-29T01:39:12.077Z,49.8
2022-07-29T01:40:14.206Z,50
2022-07-29T01:41:16.094Z,50.1
2022-07-29T01:42:18.085Z,50.2
2022-07-29T01:43:20.120Z,50.4
2022-07-29T01:44:22.087Z,50.6
2022-07-29T01:45:24.123Z,50.7
2022-07-29T01:46:26.169Z,50.7
2022-07-29T01:47:28.097Z,50.6
2022-07-29T01:48:30.162Z,50.7
2022-07-29T01:49:32.096Z,50.7
2022-07-29T01:50:34.107Z,50.8
2022-07-29T01:51:36.089Z,50.8
2022-07-29T01:52:38.113Z,50.8
2022-07-29T01:53:40.129Z,51.1
2022-07-29T01:54:42.128Z,51.2
2022-07-29T01:55:44.119Z,51.3
2022-07-29T01:56:46.098Z,51.4
2022-07-29T01:57:48.104Z,51.3
2022-07-29T01:58:50.128Z,51.3
2022-07-29T01:59:52.138Z,51.4
2022-07-29T02:00:54.142Z,51.4
2022-07-29T02:01:56.237Z,51.5
2022-07-29T02:02:58.111Z,51.5
2022-07-29T02:04:00.185Z,51.6
2022-07-29T02:05:02.393Z,51.8
2022-07-29T02:06:04.127Z,51.9
2022-07-29T02:07:06.120Z,51.9
2022-07-29T02:08:08.142Z,51.7
2022-07-29T02:09:10.155Z,51.7
2022-07-29T02:10:12.137Z,51.6
2022-07-29T02:11:14.177Z,51.5
2022-07-29T02:12:16.137Z,51.5
2022-07-29T02:13:18.130Z,51.4
2022-07-29T02:14:20.193Z,51.4
2022-07-29T02:15:22.146Z,51.4
2022-07-29T02:16:24.225Z,51.4
2022-07-29T02:17:26.144Z,51.6
2022-07-29T02:18:28.144Z,51.6
2022-07-29T02:19:30.292Z,51.5
2022-07-29T02:20:32.165Z,51.6
2022-07-29T02:21:34.179Z,51.6
2022-07-29T02:22:36.155Z,51.7
2022-07-29T02:23:44.270Z,51.8
2022-07-29T02:24:40.180Z,51.9
2022-07-29T02:25:42.231Z,52
2022-07-29T02:26:44.156Z,52.1
2022-07-29T02:27:48.719Z,52.1
2022-07-29T02:28:50.183Z,52
2022-07-29T02:29:52.213Z,52.1
2022-07-29T02:30:54.358Z,52.2
2022-07-29T02:31:56.185Z,52.3
2022-07-29T02:32:58.170Z,52.3
2022-07-29T02:34:01.258Z,52.4
2022-07-29T02:35:03.719Z,52.7
2022-07-29T02:36:05.264Z,52.8
2022-07-29T02:37:07.158Z,52.8
2022-07-29T02:38:09.191Z,52.7
2022-07-29T02:39:11.189Z,52.6
2022-07-29T02:40:13.195Z,52.7
2022-07-29T02:41:15.196Z,52.6
2022-07-29T02:42:17.184Z,52.6
2022-07-29T02:43:19.185Z,52.5
2022-07-29T02:44:21.227Z,52.5
2022-07-29T02:45:23.177Z,52.5
2022-07-29T02:46:28.682Z,52.6
2022-07-29T02:47:27.210Z,52.5
2022-07-29T02:48:29.224Z,52.5
2022-07-29T02:49:31.323Z,52.6
2022-07-29T02:50:33.191Z,52.5
2022-07-29T02:51:41.546Z,52.5
2022-07-29T02:52:37.198Z,52.6
2022-07-29T02:53:39.238Z,52.8
2022-07-29T02:54:41.240Z,52.7
2022-07-29T02:55:43.213Z,52.8
2022-07-29T02:56:45.212Z,52.9
2022-07-29T02:57:54.232Z,53
2022-07-29T02:58:49.242Z,53
2022-07-29T02:59:51.232Z,53.1
2022-07-29T03:00:53.242Z,53.3
2022-07-29T03:01:55.313Z,53.4
2022-07-29T03:02:57.201Z,53.4
2022-07-29T03:03:59.210Z,53.5
2022-07-29T03:05:01.328Z,53.5
2022-07-29T03:06:03.255Z,53.6
2022-07-29T03:07:05.240Z,53.5
2022-07-29T03:08:07.242Z,53.5
2022-07-29T03:09:13.151Z,53.5
2022-07-29T03:10:13.415Z,53.6
2022-07-29T03:11:13.259Z,53.5
2022-07-29T03:12:15.232Z,53.4
2022-07-29T03:13:17.217Z,53.4
2022-07-29T03:14:19.640Z,53.3
2022-07-29T03:15:21.284Z,53.3
2022-07-29T03:16:23.342Z,53.2
2022-07-29T03:17:25.247Z,53.1
2022-07-29T03:18:27.232Z,53.2
2022-07-29T03:19:29.270Z,53.1
2022-07-29T03:20:31.541Z,53.1
2022-07-29T03:21:33.327Z,52.9
2022-07-29T03:22:35.245Z,52.8
2022-07-29T03:23:37.260Z,52.8
2022-07-29T03:24:39.252Z,52.7
2022-07-29T03:25:41.264Z,52.8
2022-07-29T03:26:43.267Z,52.8
2022-07-29T03:27:45.253Z,52.9
2022-07-29T03:28:47.290Z,52.9
2022-07-29T03:29:49.776Z,52.8
2022-07-29T03:30:51.297Z,52.8
2022-07-29T03:31:53.248Z,52.9
2022-07-29T03:32:55.296Z,52.9
2022-07-29T03:33:57.269Z,52.9
2022-07-29T03:34:59.257Z,52.8
2022-07-29T03:36:01.262Z,52.8
2022-07-29T03:37:03.258Z,52.8
2022-07-29T03:38:05.342Z,52.7
2022-07-29T03:39:07.257Z,52.7
2022-07-29T03:40:09.286Z,52.6
2022-07-29T03:41:11.265Z,52.6
2022-07-29T03:42:13.276Z,52.6
2022-07-29T03:43:15.305Z,52.6
2022-07-29T03:44:17.657Z,52.6
2022-07-29T03:45:19.341Z,52.5
2022-07-29T03:46:21.582Z,52.5
2022-07-29T03:47:23.306Z,52.5
2022-07-29T03:48:25.353Z,52.5
2022-07-29T03:49:27.354Z,52.6
2022-07-29T03:50:29.334Z,52.6
2022-07-29T03:51:33.590Z,52.6
2022-07-29T03:52:33.355Z,52.7
2022-07-29T03:53:35.300Z,52.7
2022-07-29T03:54:37.377Z,52.6
2022-07-29T03:55:39.335Z,52.5
2022-07-29T03:56:41.291Z,52.6
2022-07-29T03:57:43.322Z,52.7
2022-07-29T03:58:45.284Z,52.7
2022-07-29T03:59:47.333Z,52.6
2022-07-29T04:00:49.455Z,52.7
2022-07-29T04:01:51.574Z,52.7
2022-07-29T04:02:53.389Z,52.8
2022-07-29T04:03:55.373Z,52.8
2022-07-29T04:04:57.308Z,52.9
2022-07-29T04:05:59.315Z,52.9
2022-07-29T04:07:01.323Z,53
2022-07-29T04:08:03.354Z,53.1
2022-07-29T04:09:05.316Z,53.1
2022-07-29T04:10:07.370Z,53.3
2022-07-29T04:11:09.349Z,53.4
2022-07-29T04:12:13.301Z,53.5
2022-07-29T04:13:15.320Z,53.5
2022-07-29T04:14:17.743Z,53.5
2022-07-29T04:15:19.332Z,53.4
2022-07-29T04:16:21.422Z,53.3
2022-07-29T04:17:23.376Z,53.2
2022-07-29T04:18:25.342Z,53.1
2022-07-29T04:19:27.337Z,53
2022-07-29T04:20:29.356Z,52.9
2022-07-29T04:21:31.360Z,52.8
2022-07-29T04:22:33.362Z,52.8
2022-07-29T04:23:35.335Z,52.7
2022-07-29T04:24:44.281Z,52.7
2022-07-29T04:25:43.373Z,52.5
2022-07-29T04:26:45.370Z,52.4
2022-07-29T04:27:47.382Z,52.1
2022-07-29T04:28:49.371Z,51.9
2022-07-29T04:29:55.879Z,51.8
2022-07-29T04:30:53.431Z,51.7
2022-07-29T04:31:55.409Z,51.6
2022-07-29T04:32:57.356Z,51.4
2022-07-29T04:33:59.362Z,51.2
2022-07-29T04:35:01.366Z,51
2022-07-29T04:36:03.409Z,51.1
2022-07-29T04:37:05.392Z,50.9
2022-07-29T04:38:07.379Z,51
2022-07-29T04:39:09.375Z,51.1
2022-07-29T04:40:11.403Z,51
2022-07-29T04:41:13.372Z,50.8
2022-07-29T04:42:15.459Z,50.6
2022-07-29T04:43:20.026Z,50.3
2022-07-29T04:44:19.689Z,50.1
2022-07-29T04:45:22.197Z,49.9
2022-07-29T04:46:23.408Z,49.8
2022-07-29T04:47:25.470Z,49.8
2022-07-29T04:48:28.809Z,49.6
2022-07-29T04:49:29.434Z,49.5
2022-07-29T04:50:31.381Z,49.4
2022-07-29T04:51:33.377Z,49.2
2022-07-29T04:52:35.445Z,49
2022-07-29T04:53:37.408Z,49
2022-07-29T04:54:39.509Z,49.2
2022-07-29T04:55:41.406Z,49.1
2022-07-29T04:56:43.429Z,48.8
2022-07-29T04:57:45.434Z,48.8
2022-07-29T04:58:47.444Z,48.5
2022-07-29T04:59:49.424Z,48.3
2022-07-29T05:00:51.405Z,48.7
2022-07-29T05:01:53.470Z,48.6
2022-07-29T05:02:55.469Z,48.6
2022-07-29T05:04:00.424Z,48.2
2022-07-29T05:04:59.415Z,48.4
2022-07-29T05:06:01.414Z,48.2
2022-07-29T05:07:03.432Z,47.8
2022-07-29T05:08:05.439Z,47.5
2022-07-29T05:09:07.412Z,47.8
2022-07-29T05:10:09.428Z,47.6
2022-07-29T05:11:13.024Z,47.4
2022-07-29T05:12:13.427Z,47
2022-07-29T05:13:15.448Z,46.7
2022-07-29T05:14:18.141Z,46.4
2022-07-29T05:15:19.447Z,46.4
2022-07-29T05:16:21.489Z,46.8
2022-07-29T05:17:23.427Z,46.8
2022-07-29T05:18:26.136Z,46.8
2022-07-29T05:19:27.476Z,46.9
2022-07-29T05:20:29.469Z,46.9
2022-07-29T05:21:31.417Z,47.1
2022-07-29T05:22:33.428Z,47
2022-07-29T05:23:35.478Z,47.3
2022-07-29T05:24:37.469Z,47.4
2022-07-29T05:25:40.879Z,47.2
2022-07-29T05:26:41.442Z,47
2022-07-29T05:27:43.446Z,47.3
2022-07-29T05:28:45.761Z,47.3
2022-07-29T05:29:47.681Z,47.3
2022-07-29T05:30:49.537Z,47
2022-07-29T05:31:51.738Z,46.9
2022-07-29T05:32:53.455Z,46.8
2022-07-29T05:33:56.625Z,46.8
2022-07-29T05:34:58.481Z,46.9
2022-07-29T05:36:01.105Z,47.3
2022-07-29T05:37:02.471Z,47.5
2022-07-29T05:38:04.477Z,47.6
2022-07-29T05:39:06.530Z,47.6
2022-07-29T05:40:08.507Z,47.5
2022-07-29T05:41:10.471Z,47.7
2022-07-29T05:42:12.480Z,47.6
2022-07-29T05:43:14.630Z,47.4
2022-07-29T05:44:16.885Z,47.1
2022-07-29T05:45:18.506Z,47.1
2022-07-29T05:46:20.599Z,47.1
2022-07-29T05:47:22.890Z,47
2022-07-29T05:48:24.476Z,47.2
2022-07-29T05:49:37.337Z,47.2
2022-07-29T05:50:38.501Z,47
2022-07-29T05:51:40.502Z,47.1
2022-07-29T05:52:42.751Z,47
2022-07-29T05:53:44.514Z,46.6
2022-07-29T05:54:46.623Z,46.5
2022-07-29T05:55:48.476Z,46.3
2022-07-29T05:56:51.962Z,46.3
2022-07-29T05:57:53.502Z,46.2
2022-07-29T05:58:56.079Z,45.9
2022-07-29T05:59:57.531Z,46
2022-07-29T06:01:00.505Z,45.8
2022-07-29T06:02:01.701Z,45.6
2022-07-29T06:03:03.566Z,45.4
2022-07-29T06:04:06.525Z,45.1
2022-07-29T06:05:10.556Z,44.9
2022-07-29T06:06:10.526Z,44.7
2022-07-29T06:07:12.548Z,44.8
2022-07-29T06:08:14.534Z,44.7
2022-07-29T06:09:16.744Z,44.3
2022-07-29T06:10:18.562Z,44.2
2022-07-29T06:11:20.560Z,43.7
2022-07-29T06:12:22.564Z,44
2022-07-29T06:13:24.520Z,44
2022-07-29T06:14:26.551Z,43.7
2022-07-29T06:15:29.391Z,43.6
2022-07-29T06:16:30.752Z,43.5
2022-07-29T06:17:32.531Z,43.4
2022-07-29T06:18:34.527Z,43.4
2022-07-29T06:19:37.544Z,43.2
2022-07-29T06:20:38.572Z,42.5
2022-07-29T06:21:42.119Z,42
2022-07-29T06:22:42.543Z,42.5
2022-07-29T06:23:44.541Z,42.7
2022-07-29T06:24:46.576Z,42.7
2022-07-29T06:25:49.611Z,42.5
2022-07-29T06:26:51.547Z,41.9
2022-07-29T06:27:53.555Z,41.6
2022-07-29T06:28:55.530Z,41.5
2022-07-29T06:29:57.697Z,41.4
2022-07-29T06:30:59.623Z,41.6
2022-07-29T06:32:01.616Z,41.7
2022-07-29T06:33:03.529Z,41.7
2022-07-29T06:34:05.599Z,41.6
2022-07-29T06:35:32.201Z,41.8
2022-07-29T06:36:10.719Z,41.9
2022-07-29T06:37:13.227Z,41.9
2022-07-29T06:38:30.614Z,41.6
2022-07-29T06:39:17.059Z,41.3
2022-07-29T06:40:18.572Z,41
2022-07-29T06:41:21.070Z,41.2
2022-07-29T06:42:22.551Z,41.3
2022-07-29T06:43:24.579Z,41.1
2022-07-29T06:44:26.607Z,40.6
2022-07-29T06:45:29.674Z,39.8
2022-07-29T06:46:31.712Z,39.3
2022-07-29T06:47:33.565Z,38.9
2022-07-29T06:48:35.634Z,38.3
2022-07-29T06:49:37.609Z,37.5
2022-07-29T06:50:39.619Z,37.1
2022-07-29T06:51:41.633Z,36.9
2022-07-29T06:52:43.648Z,36.3
2022-07-29T06:53:58.564Z,36.4
2022-07-29T06:54:47.605Z,36.7
2022-07-29T06:55:49.573Z,36.6
2022-07-29T06:56:51.662Z,36.5
2022-07-29T06:57:53.588Z,36.4
2022-07-29T06:58:55.620Z,36.5
2022-07-29T06:59:57.598Z,36.6
2022-07-29T07:00:59.674Z,36.7
2022-07-29T07:02:01.703Z,36.8
2022-07-29T07:03:03.597Z,36.6
2022-07-29T07:04:05.631Z,36.4
2022-07-29T07:05:07.642Z,36.2
2022-07-29T07:06:13.236Z,36.3
2022-07-29T07:07:11.636Z,36.5
2022-07-29T07:08:13.605Z,36.6
2022-07-29T07:09:15.643Z,36.8
2022-07-29T07:10:17.651Z,36.9
2022-07-29T07:11:20.357Z,36.8
2022-07-29T07:12:21.635Z,36.6
2022-07-29T07:13:23.612Z,36.8
2022-07-29T07:14:25.636Z,36.6
2022-07-29T07:15:38.893Z,36.7
2022-07-29T07:16:29.679Z,37.1
2022-07-29T07:17:31.617Z,37.4
2022-07-29T07:18:33.667Z,37.8
2022-07-29T07:19:36.667Z,37.8
2022-07-29T07:20:38.694Z,38
2022-07-29T07:21:40.679Z,38.1
2022-07-29T07:22:42.674Z,38.4
2022-07-29T07:23:44.662Z,38.7
2022-07-29T07:24:46.651Z,39
2022-07-29T07:25:48.702Z,39.5
2022-07-29T07:26:50.653Z,39.4
2022-07-29T07:27:52.647Z,39
2022-07-29T07:28:54.667Z,38.7
2022-07-29T07:29:56.842Z,38.5
2022-07-29T07:30:58.703Z,38.2
2022-07-29T07:32:01.261Z,38.4
2022-07-29T07:33:02.681Z,38.4
2022-07-29T07:34:04.679Z,38.3
2022-07-29T07:35:06.718Z,38.3
2022-07-29T07:36:08.685Z,38.1
2022-07-29T07:37:10.666Z,38.3
2022-07-29T07:38:12.684Z,38.1
2022-07-29T07:39:14.684Z,37.5
2022-07-29T07:40:18.501Z,37.2
2022-07-29T07:41:18.724Z,36.6
2022-07-29T07:42:20.886Z,36.8
2022-07-29T07:43:22.677Z,37
2022-07-29T07:44:24.711Z,37.2
2022-07-29T07:45:26.746Z,37.4
2022-07-29T07:46:28.707Z,37.7
2022-07-29T07:47:30.728Z,37.4
2022-07-29T07:48:32.688Z,37.5
2022-07-29T07:49:34.711Z,37.4
2022-07-29T07:50:36.697Z,37.3
2022-07-29T07:51:38.682Z,37.4
2022-07-29T07:52:40.719Z,37.7
2022-07-29T07:53:42.690Z,37.7
2022-07-29T07:54:44.738Z,37.2
2022-07-29T07:56:09.172Z,36.9
2022-07-29T07:56:48.769Z,36.8
2022-07-29T07:57:50.798Z,36.6
2022-07-29T07:58:52.793Z,36.5
2022-07-29T07:59:54.697Z,36.3
2022-07-29T08:00:56.888Z,36.2
2022-07-29T08:01:59.024Z,35.9
2022-07-29T08:03:00.744Z,36.3
2022-07-29T08:04:02.937Z,36.5
2022-07-29T08:05:04.824Z,36.4
2022-07-29T08:06:06.903Z,36.2
2022-07-29T08:07:08.779Z,35.8
2022-07-29T08:08:10.732Z,35.8
2022-07-29T08:09:28.029Z,35.4
2022-07-29T08:10:14.740Z,35.4
2022-07-29T08:11:16.730Z,35.6
2022-07-29T08:12:18.740Z,35.7
2022-07-29T08:13:20.773Z,35.6
2022-07-29T08:14:22.735Z,35.4
2022-07-29T08:15:24.748Z,35.3
2022-07-29T08:16:26.770Z,35.2
2022-07-29T08:17:28.717Z,35.1
2022-07-29T08:18:30.757Z,34.8
2022-07-29T08:19:32.765Z,34.5
2022-07-29T08:20:34.738Z,34.3
2022-07-29T08:21:36.791Z,34.8
2022-07-29T08:22:39.071Z,35
2022-07-29T08:23:45.814Z,35.2
2022-07-29T08:24:42.767Z,35
2022-07-29T08:25:44.788Z,35
2022-07-29T08:26:46.816Z,34.8
2022-07-29T08:27:49.161Z,34.5
2022-07-29T08:28:50.773Z,34
2022-07-29T08:29:52.787Z,33.4
2022-07-29T08:30:54.773Z,33
2022-07-29T08:31:57.022Z,33
2022-07-29T08:32:58.821Z,33.3
2022-07-29T08:34:00.874Z,33.2
2022-07-29T08:35:03.862Z,33
2022-07-29T08:36:05.768Z,32.6
2022-07-29T08:37:07.785Z,32.7
2022-07-29T08:38:09.775Z,32.3
2022-07-29T08:39:11.802Z,31.7
2022-07-29T08:40:13.817Z,31.1
2022-07-29T08:41:15.776Z,30.9
2022-07-29T08:42:17.767Z,30.9
2022-07-29T08:43:19.774Z,31.3
2022-07-29T08:44:25.324Z,31.5
2022-07-29T08:45:23.843Z,31.9
2022-07-29T08:46:25.842Z,31.7
2022-07-29T08:47:27.819Z,31.6
2022-07-29T08:48:29.776Z,31.5
2022-07-29T08:49:31.801Z,31.9
2022-07-29T08:50:33.822Z,32.2
2022-07-29T08:51:35.867Z,32.3
2022-07-29T08:52:37.836Z,32.4
2022-07-29T08:53:39.807Z,32.6
2022-07-29T08:54:41.808Z,33
2022-07-29T08:55:43.814Z,33.2
2022-07-29T08:56:45.787Z,33.2
2022-07-29T08:57:50.806Z,33.2
2022-07-29T08:58:52.161Z,32.7
2022-07-29T08:59:52.811Z,32.3
2022-07-29T09:00:55.415Z,32.1
2022-07-29T09:01:57.043Z,31.9
2022-07-29T09:02:58.838Z,31.4
2022-07-29T09:04:00.289Z,30.9
2022-07-29T09:05:01.197Z,30.3
2022-07-29T09:06:03.954Z,29.7
2022-07-29T09:07:05.825Z,29.1
2022-07-29T09:08:07.874Z,28.8
2022-07-29T09:09:09.850Z,28.6
2022-07-29T09:10:11.847Z,28.6
2022-07-29T09:11:13.839Z,28.5
2022-07-29T09:12:28.985Z,28.4
2022-07-29T09:13:17.881Z,28.8
2022-07-29T09:14:19.845Z,29.2
2022-07-29T09:15:22.016Z,29.2
2022-07-29T09:16:44.033Z,29.3
2022-07-29T09:17:25.921Z,29.3
2022-07-29T09:18:30.529Z,29.6
2022-07-29T09:19:29.874Z,30
2022-07-29T09:20:31.865Z,30.5
2022-07-29T09:21:33.860Z,30.8
2022-07-29T09:22:40.136Z,31.2
2022-07-29T09:23:37.900Z,31.5
2022-07-29T09:24:39.883Z,31.9
2022-07-29T09:25:42.086Z,32.6
2022-07-29T09:26:43.862Z,33
2022-07-29T09:27:45.905Z,33.1
2022-07-29T09:28:47.904Z,33.3
2022-07-29T09:29:49.985Z,33.5
2022-07-29T09:30:51.898Z,33.1
2022-07-29T09:31:54.016Z,32.9
2022-07-29T09:32:55.912Z,32.9
2022-07-29T09:33:57.870Z,33
2022-07-29T09:34:59.915Z,33.3
2022-07-29T09:36:02.031Z,33.4
2022-07-29T09:37:03.867Z,33.4
2022-07-29T09:38:05.897Z,32.8
2022-07-29T09:39:08.387Z,32.6
2022-07-29T09:40:11.767Z,32.7
2022-07-29T09:41:11.932Z,32.6
2022-07-29T09:42:13.901Z,32.7
2022-07-29T09:43:15.917Z,32.9
2022-07-29T09:44:18.123Z,33.2
2022-07-29T09:45:19.890Z,33.2
2022-07-29T09:46:21.953Z,33.2
2022-07-29T09:47:23.933Z,33.3
2022-07-29T09:48:25.915Z,33.5
2022-07-29T09:49:28.008Z,33.6
2022-07-29T09:50:29.894Z,33.3
2022-07-29T09:51:37.948Z,33.5
2022-07-29T09:52:33.921Z,33.6
2022-07-29T09:53:35.919Z,33.9
2022-07-29T09:54:37.962Z,34
2022-07-29T09:55:39.921Z,33.9
2022-07-29T09:56:41.964Z,34.1
2022-07-29T09:57:44.012Z,34.1
2022-07-29T09:58:45.972Z,34.1
2022-07-29T09:59:50.411Z,34
2022-07-29T10:00:50.030Z,34
2022-07-29T10:01:52.030Z,34
2022-07-29T10:02:54.012Z,33.9
2022-07-29T10:03:55.954Z,34.2
2022-07-29T10:04:57.974Z,34.3
2022-07-29T10:05:59.933Z,34.1
2022-07-29T10:07:04.584Z,33.5
2022-07-29T10:08:03.944Z,33.2
2022-07-29T10:09:05.995Z,33
2022-07-29T10:10:08.176Z,32.9
2022-07-29T10:11:09.941Z,33.2
2022-07-29T10:12:11.990Z,33.5
2022-07-29T10:13:15.892Z,33.7
2022-07-29T10:14:16.048Z,33.9
2022-07-29T10:15:18.060Z,33.6
2022-07-29T10:16:20.004Z,33.3
2022-07-29T10:17:22.150Z,33.1
2022-07-29T10:18:23.965Z,32.7
2022-07-29T10:19:27.153Z,32.6
2022-07-29T10:20:29.294Z,32.5
2022-07-29T10:21:35.707Z,32.1
2022-07-29T10:22:52.283Z,32.3
2022-07-29T10:23:46.609Z,32.2
2022-07-29T10:24:37.035Z,32.2
2022-07-29T10:25:38.971Z,32
2022-07-29T10:26:40.963Z,31.7
2022-07-29T10:27:43.088Z,31.6
2022-07-29T10:28:44.975Z,32
2022-07-29T10:29:47.024Z,32.4
2022-07-29T10:30:49.020Z,32.4
2022-07-29T10:31:51.060Z,32.2
2022-07-29T10:32:54.307Z,32.4
2022-07-29T10:33:54.973Z,32.7
2022-07-29T10:34:57.013Z,33.2
2022-07-29T10:35:59.000Z,33.6
2022-07-29T10:37:01.006Z,33.7
2022-07-29T10:38:03.294Z,33.4
2022-07-29T10:39:05.501Z,32.7
2022-07-29T10:40:07.049Z,32.4
2022-07-29T10:42:16.899Z,32.3
2022-07-29T10:43:17.997Z,32.1
2022-07-29T10:44:22.802Z,32.1
2022-07-29T10:45:22.050Z,32.1
2022-07-29T10:46:24.870Z,32.2
2022-07-29T10:47:26.021Z,32.2
2022-07-29T10:48:28.003Z,32.3
2022-07-29T10:49:30.366Z,32
2022-07-29T10:50:32.008Z,31.9
2022-07-29T10:51:33.997Z,31.5
2022-07-29T10:52:36.110Z,31.2
2022-07-29T10:53:38.029Z,31.4
2022-07-29T10:54:42.250Z,31.8
2022-07-29T10:55:43.276Z,32
2022-07-29T10:56:44.202Z,32
2022-07-29T10:57:52.961Z,32
2022-07-29T10:58:50.001Z,31.6
2022-07-29T10:59:50.070Z,31
2022-07-29T11:00:52.249Z,30.7
2022-07-29T11:01:54.349Z,30.4
2022-07-29T11:02:55.081Z,29.8
2022-07-29T11:03:57.135Z,29.5
2022-07-29T11:04:59.027Z,29.3
2022-07-29T11:06:01.298Z,29.1
2022-07-29T11:07:03.939Z,29.1
2022-07-29T11:08:05.198Z,29.2
2022-07-29T11:09:07.057Z,29.6
2022-07-29T11:10:08.479Z,29.7
2022-07-29T11:11:09.851Z,29.6
2022-07-29T11:12:10.455Z,29.2
2022-07-29T11:13:11.466Z,28.9
2022-07-29T11:14:12.432Z,28.7
2022-07-29T11:15:13.477Z,28.5
2022-07-29T11:16:16.087Z,28.2
2022-07-29T11:17:15.469Z,28
2022-07-29T11:18:17.371Z,28.3
2022-07-29T11:19:21.459Z,28.3
2022-07-29T11:20:20.075Z,28.2
2022-07-29T11:21:23.306Z,28.2
2022-07-29T11:22:24.105Z,28.1
2022-07-29T11:23:26.075Z,27.9
2022-07-29T11:24:28.677Z,28.2
2022-07-29T11:25:42.338Z,28.5
2022-07-29T11:26:32.094Z,28.9
2022-07-29T11:27:34.117Z,29.3
2022-07-29T11:28:36.076Z,29.6
2022-07-29T11:29:39.952Z,30.2
2022-07-29T11:30:40.109Z,30.5
2022-07-29T11:31:42.074Z,30.7
2022-07-29T11:32:44.698Z,30.8
2022-07-29T11:33:54.989Z,30.9
2022-07-29T11:34:48.105Z,31
2022-07-29T11:36:00.525Z,31
2022-07-29T11:36:52.181Z,31.1
2022-07-29T11:37:55.408Z,31.3
2022-07-29T11:38:56.108Z,31.8
2022-07-29T11:40:01.601Z,32.5
2022-07-29T11:41:00.101Z,32.6
2022-07-29T11:42:05.044Z,32.8
2022-07-29T11:43:07.176Z,32.7
2022-07-29T11:44:06.110Z,32.3
2022-07-29T11:45:08.907Z,32.1
2022-07-29T11:46:10.160Z,32.4
2022-07-29T11:47:12.108Z,32.4
2022-07-29T11:48:28.141Z,32.2
2022-07-29T11:49:16.248Z,32
2022-07-29T11:50:18.176Z,32.1
2022-07-29T11:51:20.171Z,32.3
2022-07-29T11:52:22.287Z,32.4
2022-07-29T11:53:24.256Z,32.5
2022-07-29T11:54:27.208Z,32.2
2022-07-29T11:55:32.221Z,31.9
2022-07-29T11:56:30.159Z,31.8
2022-07-29T11:57:36.138Z,31.7
2022-07-29T11:58:34.135Z,31.8
2022-07-29T11:59:36.159Z,32
2022-07-29T12:00:38.198Z,32
2022-07-29T12:01:40.159Z,32.2
2022-07-29T12:02:42.504Z,32
2022-07-29T12:03:44.976Z,32.3
2022-07-29T12:04:46.315Z,32.3
2022-07-29T12:05:51.684Z,32.2
2022-07-29T12:06:50.234Z,32.8
2022-07-29T12:07:52.163Z,33.1
2022-07-29T12:08:54.174Z,33.5
2022-07-29T12:09:56.893Z,33.6
2022-07-29T12:10:58.334Z,33.8
2022-07-29T12:12:04.722Z,33.9
2022-07-29T12:13:02.179Z,33.9
2022-07-29T12:14:04.234Z,33.9
2022-07-29T12:15:06.203Z,33.7
2022-07-29T12:16:08.231Z,33.4
2022-07-29T12:17:10.234Z,33.6
2022-07-29T12:18:12.200Z,33.8
2022-07-29T12:19:14.239Z,33.9
2022-07-29T12:20:16.203Z,34.2
2022-07-29T12:21:18.183Z,34.2
2022-07-29T12:22:20.222Z,34.1
2022-07-29T12:23:22.219Z,34.3
2022-07-29T12:24:26.644Z,34.3
2022-07-29T12:25:33.898Z,34.1
2022-07-29T12:26:28.177Z,34.1
2022-07-29T12:27:31.400Z,34.2
2022-07-29T12:28:32.182Z,34.5
2022-07-29T12:29:35.310Z,34.5
2022-07-29T12:30:36.227Z,34.2
2022-07-29T12:31:42.572Z,33.8
2022-07-29T12:32:40.399Z,33.6
2022-07-29T12:33:41.569Z,33.2
2022-07-29T12:34:43.230Z,32.9
2022-07-29T12:35:45.889Z,32.7
2022-07-29T12:36:47.196Z,32.4
2022-07-29T12:37:49.253Z,32.2
2022-07-29T12:38:51.216Z,31.8
2022-07-29T12:39:53.235Z,31.9
2022-07-29T12:40:55.226Z,32.1
2022-07-29T12:42:04.281Z,31.9
2022-07-29T12:42:59.236Z,31.8
2022-07-29T12:44:01.455Z,32.2
2022-07-29T12:45:02.884Z,32.3
2022-07-29T12:46:03.800Z,32.1
2022-07-29T12:47:04.613Z,32.1
2022-07-29T12:48:05.770Z,31.9
2022-07-29T12:49:06.721Z,31.9
2022-07-29T12:50:08.417Z,31.4
2022-07-29T12:51:10.353Z,30.8
2022-07-29T12:52:12.276Z,30.7
2022-07-29T12:53:14.222Z,30.9
2022-07-29T12:54:16.244Z,31
2022-07-29T12:55:18.308Z,31.2
2022-07-29T12:56:41.556Z,31.5
2022-07-29T12:57:22.244Z,31.6
2022-07-29T12:58:24.258Z,31.4
2022-07-29T12:59:26.282Z,31.4
2022-07-29T13:00:28.380Z,31.3
2022-07-29T13:01:30.251Z,31.8
2022-07-29T13:02:31.678Z,32.3
2022-07-29T13:03:35.715Z,32.5
2022-07-29T13:04:33.646Z,32.4
2022-07-29T13:05:34.645Z,31.8
2022-07-29T13:06:35.645Z,31.3
2022-07-29T13:07:39.688Z,31.4
2022-07-29T13:08:39.267Z,31.4
2022-07-29T13:09:41.374Z,31.4
2022-07-29T13:10:43.291Z,31.2
2022-07-29T13:11:48.300Z,31.4
2022-07-29T13:12:47.307Z,31.2
2022-07-29T13:13:49.281Z,31.9
2022-07-29T13:14:51.286Z,32.4
2022-07-29T13:15:53.355Z,32.9
2022-07-29T13:16:55.359Z,33.6
2022-07-29T13:17:57.300Z,33.7
2022-07-29T13:18:59.289Z,33.6
2022-07-29T13:20:00.709Z,33.8
2022-07-29T13:21:01.673Z,33.8
2022-07-29T13:22:02.716Z,33.6
2022-07-29T13:23:03.710Z,33.3
2022-07-29T13:24:05.315Z,32.7
2022-07-29T13:25:17.122Z,32
2022-07-29T13:26:28.149Z,31.7
2022-07-29T13:27:29.315Z,31.6
2022-07-29T13:28:31.294Z,31.9
2022-07-29T13:29:33.289Z,31.9
2022-07-29T13:30:35.344Z,32.3
2022-07-29T13:31:37.363Z,32.6
2022-07-29T13:32:39.361Z,33.2
2022-07-29T13:33:41.354Z,33.5
2022-07-29T13:34:43.311Z,33.4
2022-07-29T13:35:45.316Z,33.1
2022-07-29T13:36:47.468Z,33.2
2022-07-29T13:37:49.550Z,33.2
2022-07-29T13:38:51.552Z,33.5
2022-07-29T13:39:53.510Z,33.9
2022-07-29T13:40:55.438Z,33.9
2022-07-29T13:41:57.732Z,34.1
2022-07-29T13:42:59.368Z,33.9
2022-07-29T13:44:01.354Z,33.8
2022-07-29T13:45:03.378Z,33.9
2022-07-29T13:46:05.472Z,34.1
2022-07-29T13:47:07.404Z,34.1
2022-07-29T13:48:10.486Z,33.7
2022-07-29T13:49:12.450Z,33.6
2022-07-29T13:50:14.339Z,33.6
2022-07-29T13:51:16.327Z,33.9